Time;durP1;ratioP1;P1;durP2;ratioP2;P2;SDS_P1;SDS_P2;PMS_P1;PMS_P2;Temp;Humidity;BMP_temperature;BMP_pressure;BME280_temperature;BME280_humidity;BME280_pressure;Samples;Min_cycle;Max_cycle;Signal;HPM_P1;HPM_P2
2021/12/18 00:00:53;;;;;;;6.90;5.75;;;3.80;99.90;;;;;;4983439;28;20434;-54
2021/12/18 00:03:21;;;;;;;9.95;6.22;;;3.80;99.90;;;;;;4984018;28;20215;-55
2021/12/18 00:05:48;;;;;;;12.52;7.32;;;3.80;99.90;;;;;;4983816;28;20213;-58
2021/12/18 00:08:15;;;;;;;9.05;5.93;;;3.80;99.90;;;;;;4983807;28;20524;-54
2021/12/18 00:10:45;;;;;;;8.13;5.50;;;3.80;99.90;;;;;;4983916;28;20518;-57
2021/12/18 00:13:13;;;;;;;9.35;7.10;;;3.80;99.90;;;;;;4985758;28;20251;-58
2021/12/18 00:15:40;;;;;;;11.77;7.18;;;3.80;99.90;;;;;;4990560;28;20201;-57
2021/12/18 00:18:07;;;;;;;10.57;6.35;;;3.90;99.90;;;;;;4989306;28;20196;-56
2021/12/18 00:20:37;;;;;;;10.25;6.57;;;3.90;99.90;;;;;;4989864;28;20263;-58
2021/12/18 00:23:05;;;;;;;9.48;6.85;;;3.90;99.90;;;;;;4989555;28;20232;-55
2021/12/18 00:25:33;;;;;;;13.93;7.95;;;3.90;99.90;;;;;;4987691;28;20229;-59
2021/12/18 00:28:00;;;;;;;11.60;6.43;;;4.00;99.90;;;;;;4985251;28;20693;-55
2021/12/18 00:30:27;;;;;;;10.88;6.40;;;3.90;99.90;;;;;;4983073;28;20427;-52
2021/12/18 00:32:54;;;;;;;9.82;7.93;;;3.90;99.90;;;;;;4983241;28;20223;-54
2021/12/18 00:35:22;;;;;;;11.25;7.95;;;3.90;99.90;;;;;;4982593;28;20208;-56
2021/12/18 00:37:49;;;;;;;7.80;7.03;;;3.90;99.90;;;;;;4983279;28;20215;-56
2021/12/18 00:40:24;;;;;;;12.80;7.72;;;3.90;99.90;;;;;;4982910;28;20569;-55
2021/12/18 00:45:24;;;;;;;9.88;7.18;;;3.90;99.90;;;;;;4983471;28;20257;-56
2021/12/18 00:47:51;;;;;;;11.55;7.70;;;3.80;99.90;;;;;;4983461;28;20213;-56
2021/12/18 00:50:26;;;;;;;10.77;7.45;;;3.90;99.90;;;;;;4983267;28;20206;-58
2021/12/18 00:52:53;;;;;;;8.15;6.15;;;3.90;99.90;;;;;;4982853;28;20553;-56
2021/12/18 00:55:21;;;;;;;17.27;10.13;;;4.00;99.90;;;;;;4983434;28;20288;-53
2021/12/18 00:57:50;;;;;;;14.65;8.63;;;4.00;99.90;;;;;;4982665;28;20400;-55
2021/12/18 01:00:23;;;;;;;12.18;8.30;;;4.00;99.90;;;;;;4982991;28;20200;-55
2021/12/18 01:02:58;;;;;;;10.48;6.72;;;4.00;99.90;;;;;;4982858;28;20282;-56
2021/12/18 01:05:27;;;;;;;15.23;6.88;;;4.00;99.90;;;;;;4983861;28;20237;-55
2021/12/18 01:07:56;;;;;;;12.95;7.20;;;3.90;99.90;;;;;;4985398;28;20199;-56
2021/12/18 01:10:48;;;;;;;11.02;7.13;;;3.90;99.90;;;;;;4983454;28;20248;-53
2021/12/18 01:13:20;;;;;;;12.68;8.15;;;3.90;99.90;;;;;;4982524;28;20561;-54
2021/12/18 01:15:52;;;;;;;14.50;8.80;;;4.00;99.90;;;;;;4982708;28;20215;-53
2021/12/18 01:23:52;;;;;;;7.63;6.00;;;3.90;99.90;;;;;;4982205;28;20208;-56
2021/12/18 01:26:19;;;;;;;10.27;8.10;;;3.90;99.90;;;;;;4982790;28;20272;-55
2021/12/18 01:28:46;;;;;;;12.00;8.35;;;3.90;99.90;;;;;;4982323;28;20288;-55
2021/12/18 01:31:14;;;;;;;15.73;7.38;;;4.00;99.90;;;;;;4989090;28;20223;-56
2021/12/18 01:33:41;;;;;;;10.93;7.32;;;4.10;99.90;;;;;;5001386;28;20442;-55
2021/12/18 01:36:09;;;;;;;19.08;7.57;;;4.00;99.90;;;;;;5001475;28;20196;-55
2021/12/18 01:38:36;;;;;;;12.32;7.60;;;4.00;99.90;;;;;;5000410;28;20257;-54
2021/12/18 01:41:04;;;;;;;8.25;5.43;;;4.00;99.90;;;;;;5001120;28;20240;-53
2021/12/18 01:51:34;;;;;;;7.95;6.80;;;4.00;99.90;;;;;;5001374;28;20535;-53
2021/12/18 01:54:01;;;;;;;9.35;7.55;;;4.00;99.90;;;;;;5001549;28;20269;-55
2021/12/18 01:56:29;;;;;;;11.75;7.03;;;3.90;99.90;;;;;;5001501;28;20204;-53
2021/12/18 01:58:56;;;;;;;15.20;8.45;;;3.90;99.90;;;;;;5002607;28;20247;-53
2021/12/18 02:01:23;;;;;;;12.07;8.13;;;3.90;99.90;;;;;;5003211;28;20223;-52
2021/12/18 02:03:51;;;;;;;10.25;5.72;;;3.90;99.90;;;;;;5004674;28;20194;-53
2021/12/18 02:06:20;;;;;;;11.63;7.85;;;4.00;99.90;;;;;;5009911;28;20203;-57
2021/12/18 02:08:47;;;;;;;8.85;7.68;;;3.90;99.90;;;;;;5005607;28;20568;-55
2021/12/18 02:21:49;;;;;;;15.77;8.15;;;4.00;99.90;;;;;;5000837;28;20259;-55
2021/12/18 02:24:17;;;;;;;9.80;7.15;;;4.00;99.90;;;;;;5000948;28;20203;-54
2021/12/18 02:26:44;;;;;;;15.77;7.68;;;3.90;99.90;;;;;;5000621;28;20206;-52
2021/12/18 02:29:14;;;;;;;16.00;8.65;;;3.80;99.90;;;;;;5000922;28;20568;-53
2021/12/18 02:31:42;;;;;;;18.95;7.72;;;3.90;99.90;;;;;;5000543;28;20211;-56
2021/12/18 02:34:17;;;;;;;14.05;7.88;;;3.90;99.90;;;;;;5001319;28;20271;-56
2021/12/18 02:36:47;;;;;;;17.30;7.82;;;4.10;99.90;;;;;;5000916;28;20407;-53
2021/12/18 02:39:37;;;;;;;13.45;7.25;;;4.20;99.90;;;;;;5001769;28;20204;-55
2021/12/18 02:42:10;;;;;;;12.25;7.50;;;4.10;99.90;;;;;;5000565;28;20461;-56
2021/12/18 02:44:39;;;;;;;11.27;6.90;;;4.00;99.90;;;;;;5001059;28;20291;-57
2021/12/18 02:47:08;;;;;;;12.73;6.97;;;4.10;99.90;;;;;;5001263;28;20207;-56
2021/12/18 02:49:35;;;;;;;14.13;7.03;;;4.10;99.90;;;;;;5000863;28;20492;-55
2021/12/18 02:52:03;;;;;;;14.43;8.23;;;4.00;99.90;;;;;;5001666;28;20229;-53
2021/12/18 02:54:30;;;;;;;14.85;7.78;;;4.00;99.90;;;;;;5002122;28;20227;-56
2021/12/18 02:56:57;;;;;;;25.73;9.40;;;4.00;99.90;;;;;;5000168;28;20250;-54
2021/12/18 02:59:25;;;;;;;19.02;9.73;;;4.00;99.90;;;;;;5000566;28;20239;-55
2021/12/18 03:01:52;;;;;;;21.98;9.38;;;4.00;99.90;;;;;;5000447;28;20265;-55
2021/12/18 03:04:29;;;;;;;16.20;8.32;;;4.00;99.90;;;;;;5000411;28;20207;-52
2021/12/18 03:07:00;;;;;;;10.35;8.40;;;4.00;99.90;;;;;;5000707;28;20221;-55
2021/12/18 03:25:39;;;;;;;9.50;6.63;;;3.90;99.90;;;;;;4993162;28;20210;-53
2021/12/18 03:28:07;;;;;;;10.50;7.35;;;4.00;99.90;;;;;;4992078;28;20498;-53
2021/12/18 03:30:35;;;;;;;17.92;8.25;;;3.90;99.90;;;;;;5000197;28;20214;-55
2021/12/18 03:33:04;;;;;;;13.02;8.48;;;3.90;99.90;;;;;;5000011;28;20267;-56
2021/12/18 03:35:31;;;;;;;9.15;5.95;;;3.90;99.90;;;;;;5001198;28;20291;-57
2021/12/18 03:37:59;;;;;;;13.02;9.00;;;3.90;99.90;;;;;;5000714;28;20434;-52
2021/12/18 03:40:26;;;;;;;10.55;7.55;;;3.90;99.90;;;;;;5000874;28;20269;-55
2021/12/18 03:42:54;;;;;;;10.68;7.72;;;3.80;99.90;;;;;;5000825;28;20290;-54
2021/12/18 03:45:22;;;;;;;9.65;7.93;;;3.80;99.90;;;;;;5001943;28;20212;-54
2021/12/18 03:47:51;;;;;;;11.68;7.53;;;3.90;99.90;;;;;;5006089;28;20259;-57
2021/12/18 03:50:20;;;;;;;17.25;7.40;;;3.90;99.90;;;;;;5002000;28;20231;-55
2021/12/18 03:52:48;;;;;;;14.93;8.10;;;4.00;99.90;;;;;;5001700;28;20461;-56
2021/12/18 03:55:16;;;;;;;20.67;7.97;;;4.00;99.90;;;;;;5004585;28;20228;-53
2021/12/18 03:57:44;;;;;;;12.25;7.50;;;3.90;99.90;;;;;;5004921;28;20200;-53
2021/12/18 04:00:14;;;;;;;8.45;7.18;;;3.90;99.90;;;;;;5004218;28;20200;-55
2021/12/18 04:02:42;;;;;;;13.20;7.00;;;4.00;99.90;;;;;;5004755;28;20262;-57
2021/12/18 04:05:10;;;;;;;12.25;8.02;;;4.00;99.90;;;;;;5004545;28;20227;-55
2021/12/18 04:07:43;;;;;;;11.70;6.30;;;4.00;99.90;;;;;;5004950;28;20203;-55
2021/12/18 04:10:12;;;;;;;10.77;6.97;;;4.20;99.90;;;;;;5004415;28;20247;-55
2021/12/18 04:12:40;;;;;;;11.85;8.23;;;4.20;99.90;;;;;;5003828;28;20228;-54
2021/12/18 04:15:07;;;;;;;18.70;7.85;;;4.10;99.90;;;;;;5003134;28;20228;-54
2021/12/18 04:17:35;;;;;;;12.20;7.45;;;4.10;99.90;;;;;;5003637;28;20197;-55
2021/12/18 04:20:03;;;;;;;16.52;6.65;;;4.20;99.90;;;;;;5003322;28;20199;-56
2021/12/18 04:22:31;;;;;;;11.80;7.65;;;4.10;99.90;;;;;;5002922;28;20220;-56
2021/12/18 04:24:58;;;;;;;11.20;6.80;;;4.00;99.90;;;;;;5003345;28;20201;-55
2021/12/18 04:27:25;;;;;;;13.13;7.35;;;4.10;99.90;;;;;;5003105;28;20245;-56
2021/12/18 04:29:52;;;;;;;12.63;7.53;;;4.10;99.90;;;;;;5002920;28;20203;-53
2021/12/18 04:32:20;;;;;;;13.48;7.10;;;4.10;99.90;;;;;;5002596;28;20281;-54
2021/12/18 04:34:47;;;;;;;6.82;5.38;;;4.10;99.90;;;;;;5003259;28;20227;-53
2021/12/18 04:37:14;;;;;;;14.30;6.95;;;4.00;99.90;;;;;;5002693;28;20199;-53
2021/12/18 04:39:41;;;;;;;12.55;6.13;;;3.90;99.90;;;;;;5002990;28;20246;-54
2021/12/18 04:42:09;;;;;;;10.43;5.90;;;3.90;99.90;;;;;;5002715;28;20545;-55
2021/12/18 04:44:36;;;;;;;11.02;6.15;;;3.90;99.90;;;;;;5002382;28;20204;-53
2021/12/18 04:47:03;;;;;;;10.77;6.55;;;3.90;99.90;;;;;;5003112;28;20415;-54
2021/12/18 04:49:30;;;;;;;7.57;6.22;;;3.90;99.90;;;;;;5002346;28;20254;-57
2021/12/18 04:51:57;;;;;;;6.40;4.68;;;4.00;99.90;;;;;;5002667;28;20282;-55
2021/12/18 04:54:24;;;;;;;14.60;6.57;;;4.00;99.90;;;;;;5001526;28;20223;-54
2021/12/18 04:56:52;;;;;;;9.80;6.80;;;3.90;99.90;;;;;;5002554;28;20204;-53
2021/12/18 04:59:19;;;;;;;8.75;6.57;;;3.90;99.90;;;;;;5002215;28;20211;-58
2021/12/18 05:01:46;;;;;;;9.75;7.50;;;3.90;99.90;;;;;;5002245;28;20455;-54
2021/12/18 05:04:14;;;;;;;8.10;6.05;;;3.80;99.90;;;;;;5002084;28;20215;-56
2021/12/18 05:06:45;;;;;;;10.52;6.05;;;3.90;99.90;;;;;;5001979;28;20389;-55
2021/12/18 05:09:15;;;;;;;9.10;6.53;;;3.90;99.90;;;;;;5002876;28;20215;-57
2021/12/18 05:11:43;;;;;;;11.63;6.32;;;3.90;99.90;;;;;;5002144;28;20204;-54
2021/12/18 05:14:11;;;;;;;9.18;5.78;;;3.80;99.90;;;;;;5002699;28;20226;-54
2021/12/18 05:16:38;;;;;;;8.05;6.05;;;3.80;99.90;;;;;;5002099;28;20199;-57
2021/12/18 05:19:05;;;;;;;8.38;5.63;;;3.80;99.90;;;;;;5002818;28;20200;-56
2021/12/18 05:21:33;;;;;;;14.85;6.75;;;3.80;99.90;;;;;;5001885;28;20453;-56
2021/12/18 05:24:00;;;;;;;8.32;5.80;;;3.90;99.90;;;;;;5002437;28;20215;-56
2021/12/18 05:26:27;;;;;;;15.15;6.35;;;3.80;99.90;;;;;;5004966;28;20276;-56
2021/12/18 05:28:55;;;;;;;8.63;6.03;;;3.90;99.90;;;;;;5005853;28;20213;-53
2021/12/18 05:31:21;;;;;;;6.93;5.78;;;3.80;99.90;;;;;;5004566;28;20232;-53
2021/12/18 05:33:52;;;;;;;6.47;5.60;;;3.80;99.90;;;;;;5002094;28;20232;-55
2021/12/18 05:39:11;;;;;;;8.70;5.50;;;3.80;99.90;;;;;;5009415;28;20253;-54
2021/12/18 05:41:38;;;;;;;9.40;8.43;;;3.80;99.90;;;;;;5001510;28;20434;-60
2021/12/18 05:44:06;;;;;;;17.95;9.13;;;3.80;99.90;;;;;;5001666;28;20203;-54
2021/12/18 05:46:34;;;;;;;13.68;7.93;;;3.80;99.90;;;;;;5001813;28;20204;-55
2021/12/18 05:49:03;;;;;;;8.45;5.90;;;3.80;99.90;;;;;;5001642;28;20250;-55
2021/12/18 05:51:31;;;;;;;11.57;5.85;;;3.80;99.90;;;;;;5001680;28;20204;-53
2021/12/18 05:53:59;;;;;;;6.03;4.88;;;3.70;99.90;;;;;;5001616;28;20561;-54
2021/12/18 05:56:26;;;;;;;9.15;6.32;;;3.70;99.90;;;;;;5001308;28;20508;-53
2021/12/18 05:58:54;;;;;;;10.10;5.22;;;3.80;99.90;;;;;;5001819;28;20200;-56
2021/12/18 06:01:21;;;;;;;10.45;6.35;;;3.80;99.90;;;;;;5001489;28;20366;-55
2021/12/18 06:03:48;;;;;;;8.65;5.03;;;3.80;99.90;;;;;;5002105;28;20222;-55
2021/12/18 06:06:16;;;;;;;12.20;4.72;;;3.80;99.90;;;;;;5001481;28;20298;-57
2021/12/18 06:08:43;;;;;;;11.23;4.60;;;3.80;99.90;;;;;;5000999;28;20525;-55
2021/12/18 06:11:14;;;;;;;17.52;5.00;;;3.70;99.90;;;;;;5000898;28;20207;-56
2021/12/18 06:13:47;;;;;;;10.05;6.25;;;3.70;99.90;;;;;;5001472;28;20224;-54
2021/12/18 06:16:15;;;;;;;12.07;6.30;;;3.70;99.90;;;;;;5001132;28;20235;-55
2021/12/18 06:18:44;;;;;;;7.30;5.00;;;3.70;99.90;;;;;;5000963;28;20243;-55
2021/12/18 06:21:15;;;;;;;5.50;4.45;;;3.80;99.90;;;;;;5000845;28;20203;-55
2021/12/18 06:23:48;;;;;;;9.13;5.63;;;3.80;99.90;;;;;;5000628;28;20220;-56
2021/12/18 06:26:16;;;;;;;8.18;4.85;;;3.80;99.90;;;;;;5000968;28;20203;-53
2021/12/18 06:28:43;;;;;;;8.80;4.28;;;3.90;99.90;;;;;;5000763;28;20251;-55
2021/12/18 06:31:30;;;;;;;8.73;4.35;;;3.90;99.90;;;;;;5000469;28;20478;-54
2021/12/18 06:33:57;;;;;;;10.48;5.28;;;3.90;99.90;;;;;;5000771;28;20249;-54
2021/12/18 06:36:25;;;;;;;8.77;5.35;;;3.90;99.90;;;;;;5005076;28;20204;-57
2021/12/18 06:38:53;;;;;;;7.88;5.57;;;3.90;99.90;;;;;;5002188;28;20271;-56
2021/12/18 06:41:20;;;;;;;7.10;4.05;;;3.80;99.90;;;;;;5001195;28;20258;-55
2021/12/18 06:43:47;;;;;;;8.32;4.28;;;3.80;99.90;;;;;;5000685;28;20223;-55
2021/12/18 06:46:15;;;;;;;12.60;7.25;;;3.90;99.90;;;;;;5000748;28;20208;-54
2021/12/18 06:48:42;;;;;;;5.47;4.80;;;3.90;99.90;;;;;;5001056;28;20219;-58
2021/12/18 06:51:09;;;;;;;12.98;5.57;;;3.90;99.90;;;;;;5000169;28;20504;-56
2021/12/18 06:53:37;;;;;;;13.10;5.18;;;3.90;99.90;;;;;;5000691;28;20222;-53
2021/12/18 06:56:04;;;;;;;10.70;6.28;;;3.90;99.90;;;;;;5000341;28;20226;-56
2021/12/18 06:58:31;;;;;;;12.55;5.80;;;3.90;99.90;;;;;;5001195;28;20544;-56
2021/12/18 07:00:59;;;;;;;14.35;5.38;;;4.00;99.90;;;;;;5000164;28;20206;-56
2021/12/18 07:03:26;;;;;;;9.00;6.13;;;4.00;99.90;;;;;;5000819;28;20236;-53
2021/12/18 07:05:54;;;;;;;12.18;5.97;;;4.00;99.90;;;;;;5004144;28;20208;-58
2021/12/18 07:08:21;;;;;;;7.65;6.45;;;4.00;99.90;;;;;;5007959;28;20233;-54
2021/12/18 07:10:48;;;;;;;7.90;6.25;;;4.00;99.90;;;;;;5000887;28;20278;-54
2021/12/18 07:13:16;;;;;;;9.65;6.05;;;4.00;99.90;;;;;;5000172;28;20566;-60
2021/12/18 07:15:43;;;;;;;8.18;5.60;;;3.90;99.90;;;;;;5000159;28;20227;-58
2021/12/18 07:18:10;;;;;;;8.43;6.80;;;3.90;99.90;;;;;;4992341;28;20200;-52
2021/12/18 07:20:38;;;;;;;8.10;5.82;;;3.90;99.90;;;;;;5000758;28;20203;-56
2021/12/18 07:23:05;;;;;;;11.10;6.72;;;3.90;99.90;;;;;;5000073;28;20266;-56
2021/12/18 07:25:32;;;;;;;6.20;5.60;;;3.90;99.90;;;;;;4999808;28;20204;-56
2021/12/18 07:27:59;;;;;;;11.00;6.45;;;4.00;99.90;;;;;;5000661;28;20273;-55
2021/12/18 07:30:27;;;;;;;12.18;6.72;;;4.00;99.90;;;;;;5004394;28;20228;-56
2021/12/18 07:32:54;;;;;;;12.57;7.18;;;4.00;99.90;;;;;;5004419;28;20271;-55
2021/12/18 07:35:22;;;;;;;10.75;7.47;;;3.90;99.90;;;;;;5004374;28;20219;-56
2021/12/18 07:37:49;;;;;;;16.63;7.50;;;3.90;99.90;;;;;;5004078;28;20530;-58
2021/12/18 07:40:17;;;;;;;11.48;6.90;;;4.00;99.90;;;;;;5002734;28;20430;-51
2021/12/18 07:42:44;;;;;;;10.13;8.10;;;4.00;99.90;;;;;;4999750;28;20223;-55
2021/12/18 07:45:12;;;;;;;12.27;7.75;;;4.00;99.90;;;;;;5003993;28;20428;-55
2021/12/18 07:47:39;;;;;;;11.10;6.68;;;4.00;99.90;;;;;;5003907;28;20492;-55
2021/12/18 07:50:12;;;;;;;12.43;8.43;;;4.00;99.90;;;;;;5002662;28;20204;-56
2021/12/18 07:52:39;;;;;;;9.30;8.32;;;4.10;99.90;;;;;;5003625;28;20482;-53
2021/12/18 07:55:07;;;;;;;12.18;8.27;;;4.10;99.90;;;;;;5004094;28;20259;-53
2021/12/18 07:57:35;;;;;;;9.95;7.18;;;4.20;99.90;;;;;;5002978;28;20208;-54
2021/12/18 08:00:06;;;;;;;12.27;8.00;;;4.20;99.90;;;;;;4988469;28;20289;-52
2021/12/18 08:02:34;;;;;;;8.20;6.25;;;4.30;99.90;;;;;;4990561;28;20539;-52
2021/12/18 08:05:02;;;;;;;12.85;7.80;;;4.30;99.90;;;;;;4993145;28;20204;-53
2021/12/18 08:07:29;;;;;;;10.68;6.80;;;4.20;99.90;;;;;;4995486;28;20209;-54
2021/12/18 08:09:56;;;;;;;7.85;6.82;;;4.20;99.90;;;;;;4992232;28;20491;-57
2021/12/18 08:12:24;;;;;;;10.93;7.93;;;4.20;99.90;;;;;;4993267;28;20225;-57
2021/12/18 08:14:51;;;;;;;11.75;8.23;;;4.20;99.90;;;;;;4993084;28;20282;-58
2021/12/18 08:17:18;;;;;;;8.32;6.13;;;4.20;99.90;;;;;;4991116;28;20360;-58
2021/12/18 08:19:45;;;;;;;9.05;7.68;;;4.20;99.90;;;;;;4988056;28;20200;-55
2021/12/18 08:22:13;;;;;;;9.50;7.47;;;4.20;99.90;;;;;;4986438;28;20228;-52
2021/12/18 08:24:40;;;;;;;9.25;6.40;;;4.20;99.90;;;;;;4987109;28;20589;-55
2021/12/18 08:27:08;;;;;;;11.38;6.20;;;4.20;99.90;;;;;;4986487;28;20217;-57
2021/12/18 08:29:35;;;;;;;11.70;6.15;;;4.20;99.90;;;;;;5006556;28;20217;-55
2021/12/18 08:32:04;;;;;;;9.43;6.70;;;4.20;99.90;;;;;;4985616;28;20237;-56
2021/12/18 08:34:31;;;;;;;11.30;6.80;;;4.20;99.90;;;;;;4986110;28;20427;-53
2021/12/18 08:36:59;;;;;;;9.60;6.90;;;4.30;99.90;;;;;;4985565;28;20199;-57
2021/12/18 08:39:27;;;;;;;8.25;6.80;;;4.30;99.90;;;;;;4989300;28;20200;-57
2021/12/18 08:41:58;;;;;;;15.57;7.68;;;4.30;99.90;;;;;;4982044;28;20243;-58
2021/12/18 08:44:25;;;;;;;13.35;10.07;;;4.40;99.90;;;;;;4989332;28;21418;-56
2021/12/18 08:46:53;;;;;;;11.43;7.03;;;4.50;99.90;;;;;;5000410;28;20199;-57
2021/12/18 08:49:21;;;;;;;10.15;7.05;;;4.50;99.90;;;;;;4988067;28;20244;-54
2021/12/18 08:51:53;;;;;;;10.65;8.77;;;4.50;99.90;;;;;;4988340;28;20221;-54
2021/12/18 08:54:20;;;;;;;8.15;6.22;;;4.60;99.90;;;;;;4983470;28;20224;-57
2021/12/18 08:57:07;;;;;;;8.73;6.20;;;4.70;99.90;;;;;;4997988;28;20243;-54
2021/12/18 08:59:34;;;;;;;12.13;7.72;;;4.70;99.90;;;;;;4998489;28;20205;-57
2021/12/18 09:02:02;;;;;;;10.00;7.13;;;4.80;99.90;;;;;;4985567;28;20278;-55
2021/12/18 09:04:29;;;;;;;10.75;7.50;;;4.80;99.90;;;;;;4980879;28;20574;-55
2021/12/18 09:06:57;;;;;;;12.32;7.30;;;4.80;99.90;;;;;;4982005;28;20209;-57
2021/12/18 09:09:24;;;;;;;10.20;7.13;;;4.90;99.90;;;;;;4981248;28;20263;-54
2021/12/18 09:11:52;;;;;;;11.32;7.80;;;5.00;99.90;;;;;;4981202;28;20277;-55
2021/12/18 09:14:19;;;;;;;18.92;8.95;;;5.00;99.90;;;;;;4981857;28;20259;-54
2021/12/18 09:16:46;;;;;;;10.07;7.25;;;5.10;99.90;;;;;;4982851;28;20288;-55
2021/12/18 09:19:13;;;;;;;13.95;7.55;;;5.20;99.90;;;;;;4983195;28;20309;-53
2021/12/18 09:21:41;;;;;;;9.70;6.90;;;5.20;99.90;;;;;;4983946;28;20240;-57
2021/12/18 09:24:08;;;;;;;7.40;6.63;;;5.30;99.90;;;;;;4984346;28;20198;-49
2021/12/18 09:26:35;;;;;;;11.20;7.40;;;5.40;99.90;;;;;;4982657;28;20559;-49
2021/12/18 09:29:02;;;;;;;7.32;5.95;;;5.40;99.90;;;;;;4983258;28;20237;-55
2021/12/18 09:31:34;;;;;;;8.35;5.45;;;5.50;99.90;;;;;;4982574;28;20213;-54
2021/12/18 09:34:01;;;;;;;15.52;6.00;;;5.50;99.90;;;;;;4983316;28;20327;-50
2021/12/18 09:36:28;;;;;;;14.27;5.22;;;5.50;99.90;;;;;;4982412;28;20222;-53
2021/12/18 09:39:01;;;;;;;9.38;7.65;;;5.50;99.90;;;;;;4982612;28;20536;-53
2021/12/18 09:41:28;;;;;;;12.43;6.70;;;5.60;99.90;;;;;;4982179;28;20335;-49
2021/12/18 09:43:55;;;;;;;6.00;4.72;;;5.60;99.90;;;;;;4982730;28;20249;-52
2021/12/18 09:46:22;;;;;;;11.80;5.22;;;5.80;99.90;;;;;;4982636;28;20202;-55
2021/12/18 09:48:50;;;;;;;5.93;4.72;;;5.90;99.90;;;;;;4987388;28;20205;-53
2021/12/18 09:51:27;;;;;;;14.65;5.63;;;6.10;99.90;;;;;;4991464;28;20362;-54
2021/12/18 09:53:56;;;;;;;6.55;5.05;;;6.10;99.90;;;;;;4991237;28;20214;-53
2021/12/18 09:56:25;;;;;;;6.10;4.65;;;6.00;99.90;;;;;;4998208;28;20559;-54
2021/12/18 09:58:52;;;;;;;6.78;5.35;;;6.10;99.90;;;;;;4991053;28;20209;-53
2021/12/18 10:01:20;;;;;;;12.35;6.35;;;6.10;99.90;;;;;;4989788;28;20198;-52
2021/12/18 10:03:50;;;;;;;7.10;5.75;;;6.10;99.90;;;;;;4981719;28;20222;-54
2021/12/18 10:06:40;;;;;;;6.80;4.88;;;6.20;99.90;;;;;;4996420;28;20251;-55
2021/12/18 10:09:13;;;;;;;9.02;5.97;;;6.10;99.90;;;;;;4996232;28;20208;-54
2021/12/18 10:11:45;;;;;;;6.95;5.70;;;6.10;99.90;;;;;;5001525;28;20204;-53
2021/12/18 10:14:14;;;;;;;7.53;5.80;;;6.20;99.90;;;;;;5001250;28;20240;-49
2021/12/18 10:16:46;;;;;;;7.90;5.43;;;6.20;99.90;;;;;;5001298;28;20228;-55
2021/12/18 10:19:29;;;;;;;10.50;6.60;;;6.20;99.90;;;;;;4989393;28;20206;-55
2021/12/18 10:22:07;;;;;;;8.75;5.65;;;6.20;99.90;;;;;;4994311;28;20217;-51
2021/12/18 10:24:40;;;;;;;12.18;6.40;;;6.20;99.90;;;;;;4997693;28;20248;-53
2021/12/18 10:27:21;;;;;;;8.02;6.78;;;6.20;99.90;;;;;;5006525;28;20205;-55
2021/12/18 10:29:51;;;;;;;11.95;6.22;;;6.20;99.90;;;;;;5003718;28;20252;-54
2021/12/18 10:32:21;;;;;;;7.32;5.50;;;6.20;99.90;;;;;;5002416;28;20522;-53
2021/12/18 10:34:54;;;;;;;8.23;6.07;;;6.20;99.90;;;;;;4998052;28;20213;-55
2021/12/18 10:37:24;;;;;;;7.78;6.07;;;6.30;99.90;;;;;;4997371;28;20532;-51
2021/12/18 10:39:54;;;;;;;6.47;5.40;;;6.20;99.90;;;;;;4995432;28;20436;-52
2021/12/18 10:42:39;;;;;;;7.32;5.97;;;6.20;99.90;;;;;;5000397;28;20284;-52
2021/12/18 10:45:10;;;;;;;7.88;6.22;;;6.10;99.90;;;;;;4996804;28;20392;-51
2021/12/18 10:48:03;;;;;;;8.32;7.50;;;6.10;99.90;;;;;;5001216;28;20216;-50
2021/12/18 10:50:49;;;;;;;6.07;4.45;;;6.10;99.90;;;;;;5001624;28;20404;-54
2021/12/18 10:53:19;;;;;;;12.52;7.00;;;6.00;99.90;;;;;;5008949;28;20220;-52
2021/12/18 10:55:52;;;;;;;11.80;5.70;;;6.00;99.90;;;;;;5009386;28;20244;-55
2021/12/18 10:58:27;;;;;;;8.00;4.63;;;6.00;99.90;;;;;;5009325;28;20197;-52
2021/12/18 11:01:11;;;;;;;7.22;5.45;;;5.90;99.90;;;;;;4997215;28;20197;-57
2021/12/18 11:03:49;;;;;;;9.00;6.63;;;5.90;99.90;;;;;;5003769;28;20284;-54
2021/12/18 11:06:28;;;;;;;12.63;7.28;;;6.00;99.90;;;;;;4984902;28;20244;-52
2021/12/18 11:09:13;;;;;;;11.23;6.57;;;6.00;99.90;;;;;;4980764;28;20485;-50
2021/12/18 11:14:10;;;;;;;9.88;6.90;;;6.20;99.90;;;;;;4999312;28;20200;-50
2021/12/18 11:16:39;;;;;;;8.75;6.45;;;6.20;99.90;;;;;;4995704;28;20286;-52
2021/12/18 11:19:13;;;;;;;11.50;7.07;;;6.30;99.90;;;;;;5001059;28;20202;-54
2021/12/18 11:21:49;;;;;;;10.88;7.53;;;6.30;99.90;;;;;;5000837;28;20216;-58
2021/12/18 11:24:19;;;;;;;10.35;7.22;;;6.30;99.90;;;;;;5002328;28;20251;-49
2021/12/18 11:26:57;;;;;;;9.25;6.45;;;6.20;99.90;;;;;;5001236;28;20244;-50
2021/12/18 11:29:51;;;;;;;11.35;7.28;;;6.20;99.90;;;;;;4993353;28;20213;-55
2021/12/18 11:32:23;;;;;;;7.43;5.45;;;6.20;99.90;;;;;;5000470;28;20236;-53
2021/12/18 11:38:08;;;;;;;9.25;6.13;;;6.20;99.90;;;;;;5141100;27;20353;-82
2021/12/18 11:40:49;;;;;;;8.70;6.53;;;6.10;99.90;;;;;;5089648;27;20916;-54
2021/12/18 11:43:38;;;;;;;7.53;6.53;;;6.10;99.90;;;;;;5089682;28;20260;-56
2021/12/18 11:46:30;;;;;;;8.88;5.22;;;6.10;99.90;;;;;;5085322;28;20202;-55
2021/12/18 11:48:59;;;;;;;9.50;6.70;;;6.10;99.90;;;;;;5066163;28;20558;-55
2021/12/18 11:51:28;;;;;;;10.63;7.47;;;6.10;99.90;;;;;;5071048;28;20561;-57
2021/12/18 11:53:56;;;;;;;12.75;6.47;;;6.20;99.90;;;;;;5068273;28;20419;-56
2021/12/18 11:56:25;;;;;;;11.10;6.10;;;6.20;99.90;;;;;;5076321;28;20205;-57
2021/12/18 11:58:56;;;;;;;10.00;6.68;;;6.10;99.90;;;;;;5076829;28;20222;-59
2021/12/18 12:01:26;;;;;;;10.88;7.45;;;6.10;99.90;;;;;;5077826;28;20199;-59
2021/12/18 12:03:57;;;;;;;10.15;8.18;;;6.10;99.90;;;;;;5063701;28;20493;-57
2021/12/18 12:06:34;;;;;;;8.05;6.18;;;6.20;99.90;;;;;;5056077;28;20465;-55
2021/12/18 12:09:24;;;;;;;10.15;8.35;;;6.20;99.90;;;;;;5082313;28;20206;-59
2021/12/18 12:12:13;;;;;;;8.73;6.82;;;6.10;99.90;;;;;;5093225;28;20450;-60
2021/12/18 12:14:42;;;;;;;6.88;5.90;;;6.00;99.90;;;;;;5075319;28;20206;-59
2021/12/18 12:17:17;;;;;;;6.65;6.00;;;6.10;99.90;;;;;;5081457;28;20462;-60
2021/12/18 12:19:49;;;;;;;7.25;5.45;;;6.00;99.90;;;;;;5076383;28;20229;-59
2021/12/18 12:22:41;;;;;;;5.28;4.70;;;6.00;99.90;;;;;;5075900;28;20202;-52
2021/12/18 12:25:12;;;;;;;6.38;5.78;;;5.90;99.90;;;;;;5067495;28;20268;-58
2021/12/18 12:27:59;;;;;;;8.95;7.13;;;6.00;99.90;;;;;;5074291;28;20361;-55
2021/12/18 12:30:34;;;;;;;9.32;5.18;;;5.90;99.90;;;;;;5076948;28;20202;-55
2021/12/18 12:33:04;;;;;;;7.13;5.20;;;5.90;99.90;;;;;;5068050;28;20263;-53
2021/12/18 12:36:12;;;;;;;6.20;5.60;;;5.90;99.90;;;;;;5072081;28;20316;-58
2021/12/18 12:38:51;;;;;;;7.43;6.55;;;5.90;99.90;;;;;;5071135;28;20340;-58
2021/12/18 12:41:33;;;;;;;7.85;6.28;;;5.90;99.90;;;;;;5068618;28;20203;-56
2021/12/18 12:44:18;;;;;;;9.02;6.45;;;5.90;99.90;;;;;;5076183;28;20512;-54
2021/12/18 12:46:46;;;;;;;11.27;7.72;;;6.00;99.90;;;;;;5082531;28;20237;-59
2021/12/18 12:49:20;;;;;;;8.02;6.45;;;6.00;99.90;;;;;;5085762;28;20198;-57
2021/12/18 12:52:03;;;;;;;8.00;5.72;;;6.00;99.90;;;;;;5057743;28;20460;-59
2021/12/18 12:54:50;;;;;;;6.82;5.68;;;6.00;99.90;;;;;;5047510;28;20239;-54
2021/12/18 12:57:26;;;;;;;7.55;6.32;;;6.00;99.90;;;;;;5050775;28;20223;-60
2021/12/18 12:59:53;;;;;;;6.72;6.03;;;6.00;99.90;;;;;;5067274;28;20253;-58
2021/12/18 13:02:21;;;;;;;8.15;6.47;;;6.00;99.90;;;;;;5048848;28;20199;-60
2021/12/18 13:04:48;;;;;;;6.70;6.00;;;5.90;99.90;;;;;;5060556;28;20196;-57
2021/12/18 13:07:15;;;;;;;6.57;5.88;;;5.90;99.90;;;;;;5048055;28;20229;-55
2021/12/18 13:09:47;;;;;;;8.85;7.38;;;5.90;99.90;;;;;;5051371;28;20201;-50
2021/12/18 13:12:15;;;;;;;9.57;8.65;;;5.80;99.90;;;;;;5046410;28;20200;-57
2021/12/18 13:14:43;;;;;;;11.23;6.57;;;5.90;99.90;;;;;;5047867;28;20208;-56
2021/12/18 13:17:25;;;;;;;7.47;6.22;;;5.90;99.90;;;;;;5059091;28;20536;-55
2021/12/18 13:19:54;;;;;;;6.18;5.55;;;5.90;99.90;;;;;;5066142;28;20233;-56
2021/12/18 13:22:29;;;;;;;6.40;5.85;;;5.80;99.90;;;;;;5066097;28;20376;-56
2021/12/18 13:25:07;;;;;;;10.13;8.05;;;5.90;99.90;;;;;;5059168;28;20238;-54
2021/12/18 13:27:39;;;;;;;9.07;7.53;;;5.90;99.90;;;;;;5081691;28;20214;-58
2021/12/18 13:30:16;;;;;;;8.25;7.38;;;5.90;99.90;;;;;;5071473;28;20500;-57
2021/12/18 13:33:00;;;;;;;8.60;7.80;;;5.90;99.90;;;;;;5082774;28;20205;-53
2021/12/18 13:35:29;;;;;;;7.32;5.30;;;5.90;99.90;;;;;;5056004;28;20203;-56
2021/12/18 13:38:09;;;;;;;8.65;7.43;;;5.90;99.90;;;;;;5068872;28;20445;-58
2021/12/18 13:40:48;;;;;;;10.30;7.45;;;5.90;99.90;;;;;;5069622;28;20230;-56
2021/12/18 13:43:18;;;;;;;7.70;6.80;;;6.00;99.90;;;;;;5068388;28;20222;-58
2021/12/18 13:45:50;;;;;;;7.90;6.78;;;5.90;99.90;;;;;;5066648;28;20264;-54
2021/12/18 13:48:20;;;;;;;7.82;6.90;;;6.00;99.90;;;;;;5075755;28;20219;-56
2021/12/18 13:51:04;;;;;;;13.52;7.43;;;5.90;99.90;;;;;;5080933;28;20508;-55
2021/12/18 13:54:02;;;;;;;12.18;7.55;;;5.90;99.90;;;;;;5071292;28;20209;-52
2021/12/18 13:56:44;;;;;;;11.40;6.88;;;5.90;99.90;;;;;;5074382;28;20257;-57
2021/12/18 13:59:20;;;;;;;9.15;6.80;;;5.90;99.90;;;;;;5078542;28;20202;-55